createdAt,value
2022-09-21T00:01:07.711Z,20.00
2022-09-21T00:03:35.951Z,21.00
2022-09-21T00:06:05.071Z,18.00
2022-09-21T00:08:33.138Z,12.00
2022-09-21T00:11:03.578Z,18.25
2022-09-21T00:13:32.669Z,20.25
2022-09-21T00:16:00.715Z,9.50
2022-09-21T00:18:29.822Z,19.00
2022-09-21T00:20:57.940Z,21.00
2022-09-21T00:23:26.798Z,18.75
2022-09-21T00:25:54.770Z,18.50
2022-09-21T00:28:24.180Z,19.50
2022-09-21T00:30:52.143Z,18.00
2022-09-21T00:33:20.193Z,17.50
2022-09-21T00:35:48.319Z,19.25
2022-09-21T00:38:16.398Z,18.50
2022-09-21T00:40:44.711Z,16.25
2022-09-21T00:43:16.638Z,19.00
2022-09-21T00:45:48.538Z,15.75
2022-09-21T00:48:16.910Z,18.50
2022-09-21T00:50:48.107Z,17.75
2022-09-21T00:53:17.016Z,21.00
2022-09-21T00:55:49.348Z,16.25
2022-09-21T00:58:20.839Z,13.75
2022-09-21T01:00:50.366Z,17.25
2022-09-21T01:03:18.461Z,15.00
2022-09-21T01:05:46.469Z,15.50
2022-09-21T01:08:16.183Z,17.25
2022-09-21T01:10:56.108Z,19.00
2022-09-21T01:13:31.196Z,17.25
2022-09-21T01:16:03.407Z,6.50
2022-09-21T01:18:35.487Z,16.75
2022-09-21T01:21:17.032Z,21.00
2022-09-21T01:24:18.270Z,18.00
2022-09-21T01:27:01.790Z,18.25
2022-09-21T01:29:33.513Z,17.75
2022-09-21T01:32:05.944Z,14.00
2022-09-21T01:34:37.853Z,17.75
2022-09-21T01:37:09.196Z,17.25
2022-09-21T01:39:38.419Z,21.25
2022-09-21T01:42:07.753Z,16.50
2022-09-21T01:44:39.698Z,20.00
2022-09-21T01:47:09.810Z,17.50
2022-09-21T01:49:39.855Z,18.25
2022-09-21T01:52:13.067Z,18.25
2022-09-21T01:54:44.887Z,17.00
2022-09-21T01:57:16.714Z,16.50
2022-09-21T01:59:50.449Z,20.25
2022-09-21T02:02:20.725Z,17.00
2022-09-21T02:04:49.207Z,21.50
2022-09-21T02:07:18.263Z,13.25
2022-09-21T02:09:48.350Z,16.75
2022-09-21T02:12:19.062Z,20.75
2022-09-21T02:14:49.513Z,17.25
2022-09-21T02:17:25.610Z,18.75
2022-09-21T02:19:57.054Z,17.50
2022-09-21T02:22:31.404Z,19.00
2022-09-21T02:25:06.773Z,19.25
2022-09-21T02:27:37.113Z,17.50
2022-09-21T02:30:09.119Z,17.25
2022-09-21T02:32:42.091Z,15.25
2022-09-21T02:35:15.945Z,15.00
2022-09-21T02:37:46.860Z,17.75
2022-09-21T02:40:23.332Z,16.00
2022-09-21T02:42:54.409Z,18.25
2022-09-21T02:45:26.344Z,15.25
2022-09-21T02:47:59.482Z,17.25
2022-09-21T02:50:33.619Z,20.50
2022-09-21T02:53:02.698Z,19.00
2022-09-21T02:55:31.567Z,21.50
2022-09-21T02:58:02.099Z,21.50
2022-09-21T03:00:31.637Z,12.25
2022-09-21T03:02:59.673Z,12.00
2022-09-21T03:05:28.687Z,18.00
2022-09-21T03:07:56.734Z,21.20
2022-09-21T03:10:25.680Z,17.25
2022-09-21T03:12:57.652Z,20.00
2022-09-21T03:15:26.206Z,21.25
2022-09-21T03:17:55.681Z,21.25
2022-09-21T03:20:23.767Z,16.75
2022-09-21T03:22:51.853Z,19.25
2022-09-21T03:25:19.857Z,19.50
2022-09-21T03:27:47.856Z,18.50
2022-09-21T03:30:16.047Z,18.25
2022-09-21T03:32:44.148Z,17.50
2022-09-21T03:35:13.840Z,14.50
2022-09-21T03:37:41.940Z,15.50
2022-09-21T03:40:11.665Z,19.75
2022-09-21T03:42:39.943Z,20.00
2022-09-21T03:45:08.559Z,19.00
2022-09-21T03:47:36.708Z,17.75
2022-09-21T03:50:09.690Z,19.00
2022-09-21T03:52:39.733Z,19.00
2022-09-21T03:55:08.653Z,6.50
2022-09-21T03:57:37.311Z,18.75
2022-09-21T04:00:07.340Z,18.50
2022-09-21T04:02:35.451Z,19.50
2022-09-21T04:05:03.827Z,20.00
2022-09-21T04:07:33.930Z,10.75
2022-09-21T04:10:03.593Z,17.25
2022-09-21T04:12:31.809Z,20.75
2022-09-21T04:14:59.879Z,21.00
2022-09-21T04:17:27.996Z,20.00
2022-09-21T04:19:56.244Z,22.75
2022-09-21T04:22:25.025Z,24.00
2022-09-21T04:24:53.134Z,16.25
2022-09-21T04:27:22.536Z,23.00
2022-09-21T04:29:50.713Z,0.00
2022-09-21T04:32:18.740Z,23.25
2022-09-21T04:34:47.187Z,20.50
2022-09-21T04:37:15.380Z,11.50
2022-09-21T04:39:43.403Z,22.00
2022-09-21T04:42:11.814Z,23.25
2022-09-21T04:44:42.213Z,20.00
2022-09-21T04:47:10.188Z,20.00
2022-09-21T04:49:38.650Z,15.50
2022-09-21T04:52:06.943Z,24.00
2022-09-21T04:54:35.055Z,22.50
2022-09-21T04:57:03.142Z,19.75
2022-09-21T04:59:31.208Z,17.00
2022-09-21T05:02:00.619Z,21.00
2022-09-21T05:04:29.962Z,18.75
2022-09-21T05:06:59.527Z,24.00
2022-09-21T05:09:45.341Z,20.75
2022-09-21T05:12:13.647Z,5.00
2022-09-21T05:14:44.269Z,19.75
2022-09-21T05:17:14.073Z,22.00
2022-09-21T05:19:42.364Z,23.50
2022-09-21T05:22:10.481Z,21.50
2022-09-21T05:24:38.541Z,25.75
2022-09-21T05:27:06.858Z,15.50
2022-09-21T05:29:35.254Z,20.00
2022-09-21T05:32:07.548Z,14.50
2022-09-21T05:34:43.661Z,16.50
2022-09-21T05:37:15.708Z,20.75
2022-09-21T05:39:43.982Z,15.50
2022-09-21T05:42:12.523Z,19.50
2022-09-21T05:44:40.884Z,17.00
2022-09-21T05:47:17.067Z,21.50
2022-09-21T05:49:51.138Z,20.75
2022-09-21T05:52:24.736Z,21.00
2022-09-21T05:54:57.322Z,10.75
2022-09-21T05:57:30.947Z,17.00
2022-09-21T06:00:04.527Z,20.00
2022-09-21T06:02:50.259Z,22.00
2022-09-21T06:05:20.386Z,19.75
2022-09-21T06:07:48.550Z,20.50
2022-09-21T06:10:17.449Z,15.00
2022-09-21T06:12:45.628Z,17.25
2022-09-21T06:15:15.810Z,16.50
2022-09-21T06:17:45.203Z,18.25
2022-09-21T06:20:14.283Z,17.00
2022-09-21T06:22:44.195Z,17.00
2022-09-21T06:25:12.862Z,19.00
2022-09-21T06:27:41.122Z,20.00
2022-09-21T06:30:09.600Z,20.50
2022-09-21T06:32:37.755Z,18.50
2022-09-21T06:35:06.181Z,19.25
2022-09-21T06:37:34.436Z,16.75
2022-09-21T06:40:04.326Z,11.50
2022-09-21T06:42:32.698Z,14.75
2022-09-21T06:45:01.100Z,16.75
2022-09-21T06:47:30.140Z,18.50
2022-09-21T06:49:58.896Z,18.00
2022-09-21T06:52:27.457Z,19.25
2022-09-21T06:54:55.717Z,18.00
2022-09-21T06:57:25.487Z,14.00
2022-09-21T06:59:53.759Z,17.25
2022-09-21T07:02:22.169Z,11.25
2022-09-21T07:04:50.363Z,11.50
2022-09-21T07:07:18.591Z,17.25
2022-09-21T07:12:36.737Z,14.00
2022-09-21T07:15:11.589Z,15.00
2022-09-21T07:17:50.297Z,13.75
2022-09-21T07:20:20.819Z,13.75
2022-09-21T07:22:49.554Z,13.75
2022-09-21T07:25:18.013Z,9.25
2022-09-21T07:27:48.335Z,6.25
2022-09-21T07:30:16.753Z,12.75
2022-09-21T07:32:45.028Z,15.50
2022-09-21T07:35:13.136Z,15.75
2022-09-21T07:37:41.464Z,18.50
2022-09-21T07:40:10.238Z,17.00
2022-09-21T07:42:39.432Z,15.00
2022-09-21T07:45:11.284Z,16.00
2022-09-21T07:47:39.461Z,14.00
2022-09-21T07:50:08.144Z,15.00
2022-09-21T07:52:36.370Z,15.00
2022-09-21T07:55:09.552Z,14.50
2022-09-21T07:57:56.223Z,11.75
2022-09-21T08:00:25.951Z,8.50
2022-09-21T08:02:54.017Z,12.50
2022-09-21T08:05:22.137Z,15.00
2022-09-21T08:07:50.466Z,10.00
2022-09-21T08:10:18.998Z,10.00
2022-09-21T08:12:47.035Z,10.75
2022-09-21T08:15:36.979Z,14.00
2022-09-21T08:18:07.334Z,11.50
2022-09-21T08:20:36.303Z,10.00
2022-09-21T08:23:06.022Z,11.50
2022-09-21T08:25:34.459Z,11.50
2022-09-21T08:28:09.484Z,11.50
2022-09-21T08:30:38.205Z,10.00
2022-09-21T08:33:08.421Z,13.50
2022-09-21T08:35:37.119Z,15.00
2022-09-21T08:38:05.323Z,15.50
2022-09-21T08:40:34.231Z,15.00
2022-09-21T08:43:05.485Z,10.50
2022-09-21T08:45:35.746Z,14.00
2022-09-21T08:48:07.227Z,8.75
2022-09-21T08:50:39.186Z,10.25
2022-09-21T08:53:09.339Z,9.50
2022-09-21T08:55:37.554Z,8.50
2022-09-21T08:58:07.607Z,9.00
2022-09-21T09:00:38.016Z,8.25
2022-09-21T09:03:16.917Z,9.00
2022-09-21T09:05:51.185Z,2.60
2022-09-21T09:08:25.767Z,4.00
2022-09-21T09:11:01.711Z,8.80
2022-09-21T09:13:39.571Z,6.25
2022-09-21T09:16:33.050Z,10.00
2022-09-21T09:19:08.245Z,4.25
2022-09-21T09:21:40.149Z,7.60
2022-09-21T09:24:12.028Z,7.75
2022-09-21T09:26:44.865Z,7.00
2022-09-21T09:29:20.961Z,2.50
2022-09-21T09:31:49.576Z,6.60
2022-09-21T09:34:21.002Z,1.75
2022-09-21T09:36:58.866Z,7.25
2022-09-21T09:39:29.837Z,7.00
2022-09-21T09:42:12.602Z,6.25
2022-09-21T09:44:56.033Z,8.00
2022-09-21T09:47:32.447Z,6.25
2022-09-21T09:50:05.618Z,4.50
2022-09-21T09:52:35.485Z,8.25
2022-09-21T09:55:16.019Z,2.00
2022-09-21T09:57:44.348Z,7.00
2022-09-21T10:00:15.624Z,7.25
2022-09-21T10:02:48.023Z,7.00
2022-09-21T10:05:21.675Z,7.25
2022-09-21T10:07:51.267Z,8.25
2022-09-21T10:10:33.045Z,4.75
2022-09-21T10:13:08.511Z,8.00
2022-09-21T10:15:42.726Z,7.60
2022-09-21T10:18:17.862Z,6.00
2022-09-21T10:20:54.712Z,5.00
2022-09-21T10:23:25.394Z,5.00
2022-09-21T10:26:01.791Z,7.00
2022-09-21T10:28:30.401Z,2.00
2022-09-21T10:31:12.400Z,4.50
2022-09-21T10:33:50.962Z,4.00
2022-09-21T10:36:37.309Z,3.00
2022-09-21T10:39:18.842Z,4.00
2022-09-21T10:41:50.311Z,5.50
2022-09-21T10:44:19.656Z,4.00
2022-09-21T10:46:49.080Z,4.00
2022-09-21T10:49:20.495Z,3.50
2022-09-21T10:51:49.402Z,3.00
2022-09-21T10:54:22.020Z,3.25
2022-09-21T10:56:55.040Z,3.75
2022-09-21T10:59:25.165Z,2.40
2022-09-21T11:01:54.287Z,2.40
2022-09-21T11:04:41.462Z,3.75
2022-09-21T11:07:14.023Z,2.75
2022-09-21T11:09:47.156Z,1.00
2022-09-21T11:12:36.371Z,3.00
2022-09-21T11:15:13.518Z,1.00
2022-09-21T11:17:46.322Z,3.00
2022-09-21T11:20:22.933Z,3.00
2022-09-21T11:22:57.758Z,3.00
2022-09-21T11:25:33.007Z,3.00
2022-09-21T11:28:04.343Z,2.00
2022-09-21T11:30:38.619Z,2.00
2022-09-21T11:33:16.991Z,2.25
2022-09-21T11:35:49.257Z,2.20
2022-09-21T11:38:21.815Z,1.20
2022-09-21T11:41:15.077Z,1.00
2022-09-21T11:44:03.155Z,2.00
2022-09-21T11:46:36.682Z,1.00
2022-09-21T11:49:23.082Z,4.00
2022-09-21T11:51:59.416Z,4.50
2022-09-21T11:54:46.705Z,2.00
2022-09-21T11:57:25.469Z,4.00
2022-09-21T12:00:04.357Z,2.00
2022-09-21T12:05:25.733Z,3.00
2022-09-21T12:08:16.409Z,1.00
2022-09-21T12:10:48.055Z,2.00
2022-09-21T12:13:23.242Z,4.00
2022-09-21T12:15:56.398Z,7.75
2022-09-21T12:18:32.648Z,5.75
2022-09-21T12:23:57.651Z,2.00
2022-09-21T12:26:28.941Z,3.00
2022-09-21T12:29:01.988Z,2.00
2022-09-21T12:31:33.203Z,1.00
2022-09-21T12:34:06.728Z,2.25
2022-09-21T12:36:42.006Z,2.00
2022-09-21T12:39:14.579Z,2.00
2022-09-21T12:41:47.083Z,3.50
2022-09-21T12:44:22.922Z,3.00
2022-09-21T12:46:56.730Z,2.50
2022-09-21T12:49:30.014Z,5.50
2022-09-21T12:52:00.791Z,4.25
2022-09-21T12:54:38.281Z,4.00
2022-09-21T12:57:29.667Z,4.50
2022-09-21T13:00:06.602Z,5.00
2022-09-21T13:02:37.236Z,4.50
2022-09-21T13:05:31.383Z,4.00
2022-09-21T13:08:08.811Z,5.00
2022-09-21T13:10:41.040Z,5.00
2022-09-21T13:13:18.319Z,3.75
2022-09-21T13:15:50.117Z,4.25
2022-09-21T13:18:22.759Z,6.00
2022-09-21T13:20:52.218Z,5.50
2022-09-21T13:23:25.859Z,4.50
2022-09-21T13:26:01.616Z,7.00
2022-09-21T13:28:47.754Z,6.50
2022-09-21T13:31:47.748Z,6.00
2022-09-21T13:34:33.783Z,6.00
2022-09-21T13:37:35.026Z,2.80
2022-09-21T13:40:25.507Z,5.50
2022-09-21T13:42:54.001Z,2.75
2022-09-21T13:45:41.310Z,3.00
2022-09-21T13:48:20.255Z,4.00
2022-09-21T13:50:49.123Z,3.00
2022-09-21T13:53:21.055Z,2.00
2022-09-21T13:55:52.735Z,4.00
2022-09-21T13:58:23.330Z,3.00
2022-09-21T14:00:57.000Z,3.00
2022-09-21T14:03:31.048Z,3.00
2022-09-21T14:06:04.549Z,4.00
2022-09-21T14:08:34.269Z,3.75
2022-09-21T14:11:05.802Z,4.00
2022-09-21T14:13:35.979Z,3.00
2022-09-21T14:16:26.682Z,3.50
2022-09-21T14:18:56.595Z,4.00
2022-09-21T14:21:24.772Z,3.00
2022-09-21T14:24:21.138Z,3.50
2022-09-21T14:26:54.020Z,2.00
2022-09-21T14:29:23.970Z,4.00
2022-09-21T14:31:54.654Z,3.00
2022-09-21T14:34:27.089Z,3.25
2022-09-21T14:36:57.691Z,3.00
2022-09-21T14:39:27.316Z,3.25
2022-09-21T14:41:57.146Z,1.00
2022-09-21T14:44:30.096Z,4.50
2022-09-21T14:47:13.386Z,4.00
2022-09-21T14:49:46.802Z,3.00
2022-09-21T14:52:29.568Z,3.25
2022-09-21T14:55:06.223Z,3.00
2022-09-21T14:57:44.424Z,3.00
2022-09-21T15:00:21.974Z,4.00
2022-09-21T15:02:56.584Z,3.25
2022-09-21T15:05:30.560Z,3.50
2022-09-21T15:08:27.590Z,4.00
2022-09-21T15:10:58.847Z,3.50
2022-09-21T15:13:41.768Z,3.50
2022-09-21T15:16:22.095Z,5.25
2022-09-21T15:18:51.940Z,4.50
2022-09-21T15:21:24.410Z,5.00
2022-09-21T15:23:53.314Z,3.00
2022-09-21T15:26:27.179Z,3.50
2022-09-21T15:29:12.290Z,5.75
2022-09-21T15:31:41.912Z,4.50
2022-09-21T15:34:12.125Z,3.00
2022-09-21T15:36:43.725Z,1.00
2022-09-21T15:39:28.473Z,6.00
2022-09-21T15:42:23.157Z,6.00
2022-09-21T15:44:55.642Z,3.00
2022-09-21T15:47:28.643Z,7.00
2022-09-21T15:49:57.526Z,3.75
2022-09-21T15:52:36.682Z,4.00
2022-09-21T15:55:11.540Z,3.00
2022-09-21T15:57:42.711Z,5.00
2022-09-21T16:00:34.889Z,3.50
2022-09-21T16:03:06.542Z,2.00
2022-09-21T16:05:44.369Z,2.00
2022-09-21T16:08:28.849Z,4.00
2022-09-21T16:11:17.630Z,3.00
2022-09-21T16:14:04.476Z,3.00
2022-09-21T16:16:33.306Z,4.50
2022-09-21T16:19:02.089Z,3.00
2022-09-21T16:21:32.998Z,2.00
2022-09-21T16:24:12.771Z,2.25
2022-09-21T16:26:42.818Z,2.25
2022-09-21T16:29:23.691Z,2.00
2022-09-21T16:31:52.286Z,2.75
2022-09-21T16:34:26.703Z,2.00
2022-09-21T16:36:55.353Z,3.00
2022-09-21T16:39:31.753Z,2.00
2022-09-21T16:42:03.337Z,3.00
2022-09-21T16:44:44.598Z,4.50
2022-09-21T16:47:21.059Z,4.50
2022-09-21T16:49:50.209Z,0.25
2022-09-21T16:52:19.220Z,2.00
2022-09-21T16:54:51.091Z,5.25
2022-09-21T16:57:19.694Z,5.00
2022-09-21T16:59:48.057Z,4.00
2022-09-21T17:02:17.058Z,2.00
2022-09-21T17:04:45.934Z,3.50
2022-09-21T17:07:18.587Z,1.00
2022-09-21T17:09:47.983Z,4.00
2022-09-21T17:12:19.250Z,3.75
2022-09-21T17:14:47.721Z,4.00
2022-09-21T17:17:18.709Z,4.75
2022-09-21T17:19:50.103Z,5.50
2022-09-21T17:22:18.826Z,4.00
2022-09-21T17:24:51.230Z,4.50
2022-09-21T17:27:23.242Z,3.00
2022-09-21T17:29:55.473Z,5.50
2022-09-21T17:32:24.747Z,6.00
2022-09-21T17:34:56.590Z,5.50
2022-09-21T17:37:26.976Z,5.00
2022-09-21T17:39:55.540Z,4.00
2022-09-21T17:42:26.382Z,4.00
2022-09-21T17:45:12.671Z,5.00
2022-09-21T17:47:41.772Z,5.00
2022-09-21T17:50:17.211Z,2.00
2022-09-21T17:53:10.698Z,5.00
2022-09-21T17:55:41.179Z,4.00
2022-09-21T17:58:39.288Z,3.00
2022-09-21T18:01:17.247Z,3.00
2022-09-21T18:03:46.168Z,3.00
2022-09-21T18:06:15.006Z,5.00
2022-09-21T18:08:44.608Z,1.50
2022-09-21T18:11:19.530Z,5.00
2022-09-21T18:13:55.561Z,3.00
2022-09-21T18:16:27.470Z,3.00
2022-09-21T18:19:07.596Z,2.00
2022-09-21T18:21:41.078Z,1.50
2022-09-21T18:24:16.308Z,2.00
2022-09-21T18:26:44.904Z,4.50
2022-09-21T18:29:41.830Z,2.00
2022-09-21T18:32:34.673Z,1.75
2022-09-21T18:35:13.141Z,2.75
2022-09-21T18:37:47.459Z,2.50
2022-09-21T18:40:22.210Z,5.00
2022-09-21T18:42:54.448Z,5.00
2022-09-21T18:45:26.010Z,3.50
2022-09-21T18:48:06.464Z,2.00
2022-09-21T18:50:37.262Z,3.00
2022-09-21T18:53:10.140Z,1.00
2022-09-21T18:55:39.173Z,4.50
2022-09-21T18:58:08.573Z,4.00
2022-09-21T19:00:39.515Z,4.50
2022-09-21T19:03:18.076Z,1.50
2022-09-21T19:05:53.329Z,4.00
2022-09-21T19:08:26.754Z,2.00
2022-09-21T19:10:58.693Z,5.00
2022-09-21T19:13:35.543Z,5.00
2022-09-21T19:16:11.723Z,4.50
2022-09-21T19:18:46.715Z,3.00
2022-09-21T19:21:21.630Z,1.25
2022-09-21T19:23:59.021Z,4.00
2022-09-21T19:26:31.133Z,4.00
2022-09-21T19:29:17.326Z,2.00
2022-09-21T19:31:47.404Z,5.00
2022-09-21T19:34:16.780Z,0.00
2022-09-21T19:36:46.760Z,4.50
2022-09-21T19:39:15.867Z,1.00
2022-09-21T19:41:50.477Z,2.75
2022-09-21T19:44:31.743Z,1.00
2022-09-21T19:47:07.910Z,2.00
2022-09-21T19:49:40.555Z,0.00
2022-09-21T19:52:12.887Z,1.00
2022-09-21T19:54:58.746Z,2.25
2022-09-21T19:57:44.891Z,2.25
2022-09-21T20:00:15.931Z,2.75
2022-09-21T20:02:52.000Z,2.00
2022-09-21T20:05:23.579Z,1.75
2022-09-21T20:07:54.466Z,1.50
2022-09-21T20:10:38.291Z,4.75
2022-09-21T20:13:14.035Z,2.50
2022-09-21T20:15:46.642Z,1.00
2022-09-21T20:18:21.756Z,4.50
2022-09-21T20:20:50.128Z,2.50
2022-09-21T20:23:18.566Z,1.00
2022-09-21T20:25:51.991Z,3.00
2022-09-21T20:28:21.590Z,2.00
2022-09-21T20:30:50.876Z,3.00
2022-09-21T20:33:23.828Z,1.75
2022-09-21T20:35:55.665Z,5.00
2022-09-21T20:38:24.445Z,1.75
2022-09-21T20:40:52.798Z,2.50
2022-09-21T20:43:23.233Z,3.00
2022-09-21T20:45:51.721Z,1.50
2022-09-21T20:48:21.512Z,0.00
2022-09-21T20:50:50.918Z,3.75
2022-09-21T20:53:19.495Z,3.25
2022-09-21T20:55:54.114Z,1.75
2022-09-21T20:58:22.952Z,3.00
2022-09-21T21:00:55.133Z,3.00
2022-09-21T21:03:27.710Z,3.00
2022-09-21T21:06:07.477Z,2.00
2022-09-21T21:08:35.717Z,2.75
2022-09-21T21:11:03.845Z,1.00
2022-09-21T21:13:32.201Z,1.75
2022-09-21T21:16:00.330Z,2.00
2022-09-21T21:18:29.827Z,1.25
2022-09-21T21:21:01.461Z,0.50
2022-09-21T21:23:30.499Z,2.00
2022-09-21T21:26:04.958Z,2.00
2022-09-21T21:28:33.032Z,1.00
2022-09-21T21:31:01.180Z,2.00
2022-09-21T21:33:31.089Z,2.25
2022-09-21T21:36:04.606Z,2.50
2022-09-21T21:38:32.815Z,3.00
2022-09-21T21:41:01.103Z,4.00
2022-09-21T21:43:33.623Z,3.25
2022-09-21T21:46:02.828Z,1.00
2022-09-21T21:48:32.526Z,1.00
2022-09-21T21:51:01.779Z,2.00
2022-09-21T21:53:30.713Z,4.25
2022-09-21T21:56:05.896Z,1.75
2022-09-21T21:58:34.229Z,4.25
2022-09-21T22:01:10.035Z,2.25
2022-09-21T22:03:41.030Z,4.00
2022-09-21T22:06:09.813Z,2.75
2022-09-21T22:08:38.778Z,5.00
2022-09-21T22:11:07.776Z,3.50
2022-09-21T22:13:36.894Z,0.00
2022-09-21T22:16:06.104Z,5.00
2022-09-21T22:18:35.027Z,1.50
2022-09-21T22:21:05.407Z,3.50
2022-09-21T22:23:33.954Z,3.00
2022-09-21T22:26:02.982Z,2.00
2022-09-21T22:28:32.392Z,3.00
2022-09-21T22:31:00.791Z,2.00
2022-09-21T22:33:33.253Z,5.00
2022-09-21T22:36:06.863Z,1.00
2022-09-21T22:38:39.205Z,2.25
2022-09-21T22:41:10.970Z,4.00
2022-09-21T22:43:39.553Z,1.00
2022-09-21T22:46:08.137Z,3.00
2022-09-21T22:48:36.647Z,3.00
2022-09-21T22:51:06.665Z,0.00
2022-09-21T22:53:35.069Z,3.00
2022-09-21T22:56:05.001Z,3.00
2022-09-21T22:58:33.586Z,3.50
2022-09-21T23:01:06.187Z,3.50
2022-09-21T23:03:34.627Z,2.00
2022-09-21T23:06:03.050Z,2.25
2022-09-21T23:08:32.695Z,3.00
2022-09-21T23:11:07.060Z,2.00
2022-09-21T23:13:35.137Z,2.00
2022-09-21T23:16:04.368Z,4.00
2022-09-21T23:18:32.678Z,2.00
2022-09-21T23:21:01.332Z,1.75
2022-09-21T23:23:29.835Z,2.25
2022-09-21T23:26:07.249Z,2.00
2022-09-21T23:28:35.718Z,3.75
2022-09-21T23:31:04.729Z,2.75
2022-09-21T23:33:33.605Z,1.75
2022-09-21T23:36:02.126Z,2.00
2022-09-21T23:38:30.635Z,3.75
2022-09-21T23:41:03.127Z,1.75
2022-09-21T23:43:33.240Z,1.75
2022-09-21T23:46:01.697Z,2.00
2022-09-21T23:48:30.019Z,2.00
2022-09-21T23:50:58.379Z,3.50
2022-09-21T23:53:28.719Z,2.50
2022-09-21T23:55:57.619Z,2.00
2022-09-21T23:58:26.137Z,1.00
